createdAt,value
2018-04-27T00:00:13.112Z,1010.99
2018-04-27T00:01:21.840Z,1010.95
2018-04-27T00:02:30.636Z,1010.94
2018-04-27T00:03:39.326Z,1010.97
2018-04-27T00:04:48.052Z,1010.92
2018-04-27T00:05:56.826Z,1010.93
2018-04-27T00:07:05.822Z,1010.91
2018-04-27T00:08:14.825Z,1010.89
2018-04-27T00:09:23.589Z,1010.94
2018-04-27T00:10:32.338Z,1010.89
2018-04-27T00:11:41.068Z,1010.84
2018-04-27T00:12:50.107Z,1010.85
2018-04-27T00:13:59.138Z,1010.84
2018-04-27T00:15:07.880Z,1010.84
2018-04-27T00:16:16.626Z,1010.85
2018-04-27T00:17:25.350Z,1010.78
2018-04-27T00:18:34.085Z,1010.79
2018-04-27T00:19:42.832Z,1010.78
2018-04-27T00:20:51.560Z,1010.77
2018-04-27T00:22:00.295Z,1010.76
2018-04-27T00:23:09.323Z,1010.76
2018-04-27T00:24:18.064Z,1010.76
2018-04-27T00:25:27.103Z,1010.71
2018-04-27T00:26:35.859Z,1010.73
2018-04-27T00:27:45.144Z,1010.73
2018-04-27T00:28:53.884Z,1010.74
2018-04-27T00:30:02.648Z,1010.74
2018-04-27T00:31:11.346Z,1010.75
2018-04-27T00:32:20.092Z,1010.73
2018-04-27T00:33:29.103Z,1010.76
2018-04-27T00:34:37.835Z,1010.77
2018-04-27T00:35:46.581Z,1010.73
2018-04-27T00:36:55.598Z,1010.75
2018-04-27T00:38:04.325Z,1010.73
2018-04-27T00:39:13.079Z,1010.72
2018-04-27T00:40:22.102Z,1010.7
2018-04-27T00:41:30.829Z,1010.68
2018-04-27T00:42:39.566Z,1010.66
2018-04-27T00:43:48.311Z,1010.61
2018-04-27T00:44:57.322Z,1010.6
2018-04-27T00:46:06.062Z,1010.62
2018-04-27T00:47:14.787Z,1010.63
2018-04-27T00:48:23.536Z,1010.61
2018-04-27T00:49:32.279Z,1010.6
2018-04-27T00:50:41.003Z,1010.59
2018-04-27T00:51:50.017Z,1010.61
2018-04-27T00:52:58.763Z,1010.64
2018-04-27T00:54:07.490Z,1010.64
2018-04-27T00:55:16.501Z,1010.62
2018-04-27T00:56:25.251Z,1010.63
2018-04-27T00:57:33.982Z,1010.59
2018-04-27T00:58:42.724Z,1010.56
2018-04-27T00:59:51.450Z,1010.57
2018-04-27T01:01:00.191Z,1010.57
2018-04-27T01:02:08.942Z,1010.56
2018-04-27T01:03:17.669Z,1010.55
2018-04-27T01:04:26.400Z,1010.53
2018-04-27T01:05:35.156Z,1010.51
2018-04-27T01:06:43.884Z,1010.49
2018-04-27T01:07:52.619Z,1010.48
2018-04-27T01:09:01.366Z,1010.44
2018-04-27T01:10:10.103Z,1010.44
2018-04-27T01:11:18.827Z,1010.46
2018-04-27T01:12:27.573Z,1010.45
2018-04-27T01:13:36.318Z,1010.43
2018-04-27T01:14:45.322Z,1010.46
2018-04-27T01:15:54.062Z,1010.43
2018-04-27T01:17:02.815Z,1010.4
2018-04-27T01:18:11.539Z,1010.41
2018-04-27T01:19:20.283Z,1010.42
2018-04-27T01:20:29.028Z,1010.39
2018-04-27T01:21:37.753Z,1010.34
2018-04-27T01:22:46.485Z,1010.37
2018-04-27T01:23:55.509Z,1010.33
2018-04-27T01:25:04.804Z,1010.34
2018-04-27T01:26:13.541Z,1010.3
2018-04-27T01:27:22.273Z,1010.27
2018-04-27T01:28:31.014Z,1010.27
2018-04-27T01:29:39.765Z,1010.25
2018-04-27T01:30:48.489Z,1010.22
2018-04-27T01:31:57.220Z,1010.25
2018-04-27T01:33:05.971Z,1010.26
2018-04-27T01:34:14.979Z,1010.23
2018-04-27T01:35:23.709Z,1010.25
2018-04-27T01:36:32.456Z,1010.24
2018-04-27T01:37:41.191Z,1010.24
2018-04-27T01:38:49.918Z,1010.25
2018-04-27T01:39:58.660Z,1010.26
2018-04-27T01:41:07.404Z,1010.3
2018-04-27T01:42:16.411Z,1010.25
2018-04-27T01:43:25.143Z,1010.24
2018-04-27T01:44:33.870Z,1010.25
2018-04-27T01:45:42.620Z,1010.27
2018-04-27T01:46:51.354Z,1010.24
2018-04-27T01:48:00.080Z,1010.22
2018-04-27T01:49:09.108Z,1010.22
2018-04-27T01:50:17.851Z,1010.17
2018-04-27T01:51:26.856Z,1010.13
2018-04-27T01:52:35.601Z,1010.13
2018-04-27T01:53:44.345Z,1010.13
2018-04-27T01:54:53.071Z,1010.12
2018-04-27T01:56:02.098Z,1010.1
2018-04-27T01:57:10.830Z,1010.09
2018-04-27T01:58:20.149Z,1010.11
2018-04-27T01:59:28.887Z,1010.11
2018-04-27T02:00:37.616Z,1010.1
2018-04-27T02:01:46.358Z,1010.1
2018-04-27T02:02:55.103Z,1010.14
2018-04-27T02:04:03.826Z,1010.12
2018-04-27T02:05:12.843Z,1010.15
2018-04-27T02:06:21.588Z,1010.15
2018-04-27T02:07:30.611Z,1010.14
2018-04-27T02:08:39.343Z,1010.18
2018-04-27T02:09:48.075Z,1010.15
2018-04-27T02:10:56.757Z,1010.14
2018-04-27T02:12:05.441Z,1010.15
2018-04-27T02:13:14.099Z,1010.11
2018-04-27T02:14:22.743Z,1010.1
2018-04-27T02:15:31.391Z,1010.11
2018-04-27T02:16:40.285Z,1010.11
2018-04-27T02:17:48.915Z,1010.06
2018-04-27T02:18:57.833Z,1010.05
2018-04-27T02:20:06.464Z,1010.03
2018-04-27T02:21:15.363Z,1010.05
2018-04-27T02:22:24.010Z,1010.02
2018-04-27T02:23:32.647Z,1010.02
2018-04-27T02:24:41.273Z,1010.03
2018-04-27T02:25:49.919Z,1010
2018-04-27T02:26:58.820Z,1010.01
2018-04-27T02:28:07.471Z,1009.97
2018-04-27T02:29:16.106Z,1009.97
2018-04-27T02:30:24.738Z,1009.98
2018-04-27T02:31:33.393Z,1009.98
2018-04-27T02:32:42.295Z,1009.99
2018-04-27T02:33:51.186Z,1009.97
2018-04-27T02:34:59.835Z,1009.92
2018-04-27T02:36:09.025Z,1009.89
2018-04-27T02:37:17.650Z,1009.89
2018-04-27T02:38:26.301Z,1009.89
2018-04-27T02:39:35.215Z,1009.89
2018-04-27T02:40:43.923Z,1009.85
2018-04-27T02:41:52.491Z,1009.85
2018-04-27T02:43:01.120Z,1009.84
2018-04-27T02:44:10.046Z,1009.85
2018-04-27T02:45:19.220Z,1009.84
2018-04-27T02:46:28.120Z,1009.84
2018-04-27T02:47:36.763Z,1009.85
2018-04-27T02:48:45.414Z,1009.83
2018-04-27T02:49:54.302Z,1009.81
2018-04-27T02:51:02.953Z,1009.79
2018-04-27T02:52:11.592Z,1009.83
2018-04-27T02:53:20.222Z,1009.87
2018-04-27T02:54:28.861Z,1009.9
2018-04-27T02:55:37.505Z,1009.85
2018-04-27T02:56:46.149Z,1009.87
2018-04-27T02:57:55.060Z,1009.86
2018-04-27T02:59:03.691Z,1009.84
2018-04-27T03:00:12.591Z,1009.8
2018-04-27T03:01:21.241Z,1009.82
2018-04-27T03:02:29.870Z,1009.8
2018-04-27T03:03:38.508Z,1009.79
2018-04-27T03:04:47.166Z,1009.83
2018-04-27T03:05:56.075Z,1009.81
2018-04-27T03:07:04.704Z,1009.78
2018-04-27T03:08:13.358Z,1009.81
2018-04-27T03:09:22.255Z,1009.77
2018-04-27T03:10:30.880Z,1009.77
2018-04-27T03:11:39.796Z,1009.78
2018-04-27T03:12:48.449Z,1009.76
2018-04-27T03:13:57.079Z,1009.79
2018-04-27T03:15:05.722Z,1009.74
2018-04-27T03:16:14.372Z,1009.78
2018-04-27T03:17:23.260Z,1009.78
2018-04-27T03:18:31.902Z,1009.79
2018-04-27T03:19:40.555Z,1009.76
2018-04-27T03:20:49.442Z,1009.75
2018-04-27T03:21:58.343Z,1009.74
2018-04-27T03:23:06.999Z,1009.73
2018-04-27T03:24:16.155Z,1009.72
2018-04-27T03:25:24.806Z,1009.72
2018-04-27T03:26:33.436Z,1009.72
2018-04-27T03:27:42.070Z,1009.68
2018-04-27T03:28:50.992Z,1009.67
2018-04-27T03:29:59.882Z,1009.68
2018-04-27T03:31:08.789Z,1009.65
2018-04-27T03:32:17.439Z,1009.67
2018-04-27T03:33:26.072Z,1009.67
2018-04-27T03:34:34.704Z,1009.62
2018-04-27T03:35:43.356Z,1009.6
2018-04-27T03:36:51.993Z,1009.65
2018-04-27T03:38:00.619Z,1009.6
2018-04-27T03:39:09.264Z,1009.65
2018-04-27T03:40:17.903Z,1009.62
2018-04-27T03:41:26.556Z,1009.59
2018-04-27T03:42:35.185Z,1009.55
2018-04-27T03:43:43.821Z,1009.59
2018-04-27T03:44:52.471Z,1009.56
2018-04-27T03:46:01.109Z,1009.53
2018-04-27T03:47:09.736Z,1009.55
2018-04-27T03:48:18.388Z,1009.53
2018-04-27T03:49:27.035Z,1009.53
2018-04-27T03:50:35.658Z,1009.53
2018-04-27T03:51:44.305Z,1009.57
2018-04-27T03:52:52.952Z,1009.58
2018-04-27T03:54:01.583Z,1009.56
2018-04-27T03:55:10.223Z,1009.59
2018-04-27T03:56:18.848Z,1009.59
2018-04-27T03:57:27.502Z,1009.57
2018-04-27T03:58:36.141Z,1009.56
2018-04-27T03:59:44.767Z,1009.55
2018-04-27T04:00:53.414Z,1009.56
2018-04-27T04:02:02.687Z,1009.53
2018-04-27T04:03:11.320Z,1009.52
2018-04-27T04:04:20.222Z,1009.5
2018-04-27T04:05:28.874Z,1009.48
2018-04-27T04:06:37.497Z,1009.48
2018-04-27T04:07:46.137Z,1009.49
2018-04-27T04:08:55.042Z,1009.46
2018-04-27T04:10:03.950Z,1009.46
2018-04-27T04:11:12.599Z,1009.45
2018-04-27T04:12:21.225Z,1009.43
2018-04-27T04:13:29.865Z,1009.46
2018-04-27T04:14:38.516Z,1009.47
2018-04-27T04:15:47.142Z,1009.46
2018-04-27T04:16:55.775Z,1009.45
2018-04-27T04:18:04.423Z,1009.44
2018-04-27T04:19:13.064Z,1009.42
2018-04-27T04:20:21.697Z,1009.41
2018-04-27T04:21:30.347Z,1009.42
2018-04-27T04:22:38.982Z,1009.41
2018-04-27T04:23:47.629Z,1009.39
2018-04-27T04:24:56.515Z,1009.4
2018-04-27T04:26:05.154Z,1009.38
2018-04-27T04:27:13.802Z,1009.39
2018-04-27T04:28:22.433Z,1009.42
2018-04-27T04:29:31.328Z,1009.37
2018-04-27T04:30:39.981Z,1009.38
2018-04-27T04:31:48.616Z,1009.35
2018-04-27T04:32:57.243Z,1009.44
2018-04-27T04:34:05.896Z,1009.41
2018-04-27T04:35:14.538Z,1009.39
2018-04-27T04:36:23.165Z,1009.37
2018-04-27T04:37:31.809Z,1009.38
2018-04-27T04:38:40.705Z,1009.37
2018-04-27T04:39:49.354Z,1009.41
2018-04-27T04:40:58.006Z,1009.42
2018-04-27T04:42:07.159Z,1009.4
2018-04-27T04:43:15.814Z,1009.4
2018-04-27T04:44:24.455Z,1009.49
2018-04-27T04:45:33.362Z,1009.45
2018-04-27T04:46:42.007Z,1009.49
2018-04-27T04:47:50.655Z,1009.52
2018-04-27T04:48:59.280Z,1009.48
2018-04-27T04:50:07.922Z,1009.5
2018-04-27T04:51:16.576Z,1009.48
2018-04-27T04:52:25.238Z,1009.51
2018-04-27T04:53:33.847Z,1009.48
2018-04-27T04:54:42.473Z,1009.47
2018-04-27T04:55:51.122Z,1009.48
2018-04-27T04:56:59.766Z,1009.46
2018-04-27T04:58:08.391Z,1009.46
2018-04-27T04:59:17.029Z,1009.46
2018-04-27T05:00:25.682Z,1009.48
2018-04-27T05:01:34.307Z,1009.48
2018-04-27T05:02:42.976Z,1009.51
2018-04-27T05:03:51.592Z,1009.5
2018-04-27T05:05:00.225Z,1009.53
2018-04-27T05:06:09.112Z,1009.51
2018-04-27T05:07:17.763Z,1009.54
2018-04-27T05:08:26.402Z,1009.55
2018-04-27T05:09:35.027Z,1009.48
2018-04-27T05:10:43.730Z,1009.47
2018-04-27T05:11:52.752Z,1009.48
2018-04-27T05:13:01.381Z,1009.43
2018-04-27T05:14:10.030Z,1009.43
2018-04-27T05:15:18.674Z,1009.4
2018-04-27T05:16:27.303Z,1009.4
2018-04-27T05:17:35.942Z,1009.42
2018-04-27T05:18:44.854Z,1009.4
2018-04-27T05:19:53.479Z,1009.38
2018-04-27T05:21:02.118Z,1009.39
2018-04-27T05:22:10.757Z,1009.37
2018-04-27T05:23:19.403Z,1009.32
2018-04-27T05:24:28.049Z,1009.32
2018-04-27T05:25:36.677Z,1009.35
2018-04-27T05:26:45.583Z,1009.33
2018-04-27T05:27:54.233Z,1009.3
2018-04-27T05:29:02.866Z,1009.25
2018-04-27T05:30:11.502Z,1009.23
2018-04-27T05:31:20.154Z,1009.24
2018-04-27T05:32:28.787Z,1009.2
2018-04-27T05:33:37.419Z,1009.19
2018-04-27T05:34:46.069Z,1009.22
2018-04-27T05:35:54.708Z,1009.21
2018-04-27T05:37:03.354Z,1009.24
2018-04-27T05:38:11.985Z,1009.23
2018-04-27T05:39:20.620Z,1009.24
2018-04-27T05:40:29.274Z,1009.26
2018-04-27T05:41:37.914Z,1009.24
2018-04-27T05:42:46.552Z,1009.3
2018-04-27T05:43:55.202Z,1009.2
2018-04-27T05:45:03.845Z,1009.19
2018-04-27T05:46:12.474Z,1009.23
2018-04-27T05:47:21.400Z,1009.23
2018-04-27T05:48:30.310Z,1009.25
2018-04-27T05:49:39.202Z,1009.27
2018-04-27T05:50:47.853Z,1009.23
2018-04-27T05:51:56.486Z,1009.21
2018-04-27T05:53:05.138Z,1009.18
2018-04-27T05:54:13.771Z,1009.16
2018-04-27T05:55:22.684Z,1009.14
2018-04-27T05:56:31.338Z,1009.17
2018-04-27T05:57:39.975Z,1009.16
2018-04-27T05:58:48.601Z,1009.15
2018-04-27T05:59:57.254Z,1009.15
2018-04-27T06:01:05.893Z,1009.17
2018-04-27T06:02:14.523Z,1009.16
2018-04-27T06:03:23.163Z,1009.17
2018-04-27T06:04:31.814Z,1009.18
2018-04-27T06:05:41.085Z,1009.19
2018-04-27T06:06:49.729Z,1009.17
2018-04-27T06:07:58.621Z,1009.16
2018-04-27T06:09:07.267Z,1009.19
2018-04-27T06:10:15.910Z,1009.21
2018-04-27T06:11:24.546Z,1009.13
2018-04-27T06:12:33.183Z,1009.14
2018-04-27T06:13:42.094Z,1009.11
2018-04-27T06:14:50.735Z,1009.1
2018-04-27T06:15:59.364Z,1009.14
2018-04-27T06:17:08.339Z,1009.15
2018-04-27T06:18:16.971Z,1009.15
2018-04-27T06:19:25.637Z,1009.16
2018-04-27T06:20:34.247Z,1009.17
2018-04-27T06:21:42.891Z,1009.12
2018-04-27T06:22:51.543Z,1009.14
2018-04-27T06:24:00.436Z,1009.13
2018-04-27T06:25:09.342Z,1009.11
2018-04-27T06:26:17.988Z,1009.12
2018-04-27T06:27:26.625Z,1009.13
2018-04-27T06:28:35.260Z,1009.1
2018-04-27T06:29:43.912Z,1009.07
2018-04-27T06:30:52.547Z,1009.07
2018-04-27T06:32:01.447Z,1009.03
2018-04-27T06:33:10.098Z,1009.04
2018-04-27T06:34:18.745Z,1009.05
2018-04-27T06:35:27.390Z,1009.02
2018-04-27T06:36:36.026Z,1009.03
2018-04-27T06:37:44.933Z,1009.02
2018-04-27T06:38:53.586Z,1009.01
2018-04-27T06:40:02.222Z,1008.95
2018-04-27T06:41:10.848Z,1008.95
2018-04-27T06:42:19.501Z,1008.96
2018-04-27T06:43:28.146Z,1008.97
2018-04-27T06:44:36.775Z,1009.02
2018-04-27T06:45:45.418Z,1008.97
2018-04-27T06:46:54.329Z,1008.96
2018-04-27T06:48:02.961Z,1008.95
2018-04-27T06:49:11.607Z,1008.97
2018-04-27T06:50:20.243Z,1008.95
2018-04-27T06:51:28.944Z,1008.97
2018-04-27T06:52:37.540Z,1008.98
2018-04-27T06:53:46.176Z,1008.97
2018-04-27T06:54:54.816Z,1008.99
2018-04-27T06:56:03.466Z,1008.96
2018-04-27T06:57:12.095Z,1008.97
2018-04-27T06:58:20.739Z,1009
2018-04-27T06:59:29.399Z,1008.97
2018-04-27T07:00:38.021Z,1008.93
2018-04-27T07:01:46.662Z,1008.93
2018-04-27T07:02:55.318Z,1008.93
2018-04-27T07:04:04.222Z,1008.9
2018-04-27T07:05:12.889Z,1008.89
2018-04-27T07:06:21.515Z,1008.88
2018-04-27T07:07:30.163Z,1008.9
2018-04-27T07:08:38.789Z,1008.89
2018-04-27T07:09:47.443Z,1008.88
2018-04-27T07:10:56.084Z,1008.89
2018-04-27T07:12:04.718Z,1008.82
2018-04-27T07:13:13.363Z,1008.85
2018-04-27T07:14:22.025Z,1008.86
2018-04-27T07:15:30.656Z,1008.85
2018-04-27T07:16:39.302Z,1008.84
2018-04-27T07:17:47.956Z,1008.84
2018-04-27T07:18:56.592Z,1008.82
2018-04-27T07:20:05.496Z,1008.81
2018-04-27T07:21:14.126Z,1008.81
2018-04-27T07:22:22.776Z,1008.82
2018-04-27T07:23:31.426Z,1008.81
2018-04-27T07:24:40.056Z,1008.81
2018-04-27T07:25:48.711Z,1008.79
2018-04-27T07:26:57.357Z,1008.81
2018-04-27T07:28:05.987Z,1008.77
2018-04-27T07:29:14.629Z,1008.79
2018-04-27T07:30:23.280Z,1008.76
2018-04-27T07:31:31.927Z,1008.78
2018-04-27T07:32:40.559Z,1008.81
2018-04-27T07:33:49.207Z,1008.78
2018-04-27T07:34:58.125Z,1008.8
2018-04-27T07:36:06.780Z,1008.83
2018-04-27T07:37:15.411Z,1008.81
2018-04-27T07:38:24.052Z,1008.82
2018-04-27T07:39:32.715Z,1008.83
2018-04-27T07:40:41.671Z,1008.8
2018-04-27T07:41:50.839Z,1008.79
2018-04-27T07:42:59.758Z,1008.8
2018-04-27T07:44:08.402Z,1008.82
2018-04-27T07:45:17.069Z,1008.79
2018-04-27T07:46:25.684Z,1008.79
2018-04-27T07:47:34.331Z,1008.75
2018-04-27T07:48:42.976Z,1008.74
2018-04-27T07:49:51.605Z,1008.73
2018-04-27T07:51:00.245Z,1008.7
2018-04-27T07:52:08.897Z,1008.69
2018-04-27T07:53:17.539Z,1008.77
2018-04-27T07:54:26.170Z,1008.78
2018-04-27T07:55:34.829Z,1008.78
2018-04-27T07:56:43.468Z,1008.77
2018-04-27T07:57:52.097Z,1008.71
2018-04-27T07:59:00.749Z,1008.68
2018-04-27T08:00:09.401Z,1008.65
2018-04-27T08:01:18.297Z,1008.68
2018-04-27T08:02:26.966Z,1008.67
2018-04-27T08:03:36.243Z,1008.66
2018-04-27T08:04:44.901Z,1008.66
2018-04-27T08:05:53.542Z,1008.65
2018-04-27T08:07:02.440Z,1008.68
2018-04-27T08:08:11.088Z,1008.63
2018-04-27T08:09:19.739Z,1008.67
2018-04-27T08:10:28.371Z,1008.63
2018-04-27T08:11:37.018Z,1008.62
2018-04-27T08:12:45.671Z,1008.57
2018-04-27T08:13:54.303Z,1008.56
2018-04-27T08:15:02.946Z,1008.54
2018-04-27T08:16:11.605Z,1008.59
2018-04-27T08:17:20.244Z,1008.62
2018-04-27T08:18:28.902Z,1008.56
2018-04-27T08:19:37.537Z,1008.56
2018-04-27T08:20:46.181Z,1008.56
2018-04-27T08:21:55.109Z,1008.54
2018-04-27T08:23:03.761Z,1008.58
2018-04-27T08:24:12.675Z,1008.55
2018-04-27T08:25:21.322Z,1008.55
2018-04-27T08:26:29.960Z,1008.5
2018-04-27T08:27:38.594Z,1008.53
2018-04-27T08:28:47.251Z,1008.5
2018-04-27T08:29:55.892Z,1008.5
2018-04-27T08:31:04.521Z,1008.48
2018-04-27T08:32:13.173Z,1008.46
2018-04-27T08:33:21.816Z,1008.45
2018-04-27T08:34:30.471Z,1008.48
2018-04-27T08:35:39.371Z,1008.49
2018-04-27T08:36:48.020Z,1008.47
2018-04-27T08:37:56.675Z,1008.47
2018-04-27T08:39:05.325Z,1008.49
2018-04-27T08:40:13.954Z,1008.48
2018-04-27T08:41:22.873Z,1008.45
2018-04-27T08:42:31.517Z,1008.48
2018-04-27T08:43:40.151Z,1008.45
2018-04-27T08:44:48.799Z,1008.47
2018-04-27T08:45:57.722Z,1008.49
2018-04-27T08:47:06.366Z,1008.47
2018-04-27T08:48:15.004Z,1008.48
2018-04-27T08:49:23.639Z,1008.44
2018-04-27T08:50:32.378Z,1008.48
2018-04-27T08:51:40.937Z,1008.49
2018-04-27T08:52:49.571Z,1008.47
2018-04-27T08:53:58.225Z,1008.47
2018-04-27T08:55:06.876Z,1008.48
2018-04-27T08:56:15.509Z,1008.44
2018-04-27T08:57:24.157Z,1008.47
2018-04-27T08:58:32.814Z,1008.46
2018-04-27T08:59:41.709Z,1008.48
2018-04-27T09:00:50.352Z,1008.53
2018-04-27T09:01:59.009Z,1008.47
2018-04-27T09:03:07.906Z,1008.47
2018-04-27T09:04:16.548Z,1008.53
2018-04-27T09:05:25.203Z,1008.57
2018-04-27T09:06:33.849Z,1008.55
2018-04-27T09:07:42.481Z,1008.52
2018-04-27T09:08:51.142Z,1008.48
2018-04-27T09:10:00.365Z,1008.47
2018-04-27T09:11:08.949Z,1008.45
2018-04-27T09:12:17.602Z,1008.47
2018-04-27T09:13:26.254Z,1008.48
2018-04-27T09:14:34.885Z,1008.47
2018-04-27T09:15:43.798Z,1008.45
2018-04-27T09:16:52.700Z,1008.47
2018-04-27T09:18:01.353Z,1008.43
2018-04-27T09:19:10.268Z,1008.36
2018-04-27T09:20:18.900Z,1008.33
2018-04-27T09:21:27.554Z,1008.34
2018-04-27T09:22:36.203Z,1008.36
2018-04-27T09:23:44.839Z,1008.38
2018-04-27T09:24:53.489Z,1008.36
2018-04-27T09:26:02.140Z,1008.37
2018-04-27T09:27:10.773Z,1008.33
2018-04-27T09:28:19.418Z,1008.32
2018-04-27T09:29:28.343Z,1008.35
2018-04-27T09:30:37.242Z,1008.36
2018-04-27T09:31:45.895Z,1008.34
2018-04-27T09:32:54.529Z,1008.36
2018-04-27T09:34:03.189Z,1008.32
2018-04-27T09:35:11.843Z,1008.31
2018-04-27T09:36:20.744Z,1008.35
2018-04-27T09:37:29.383Z,1008.34
2018-04-27T09:38:38.046Z,1008.31
2018-04-27T09:39:46.682Z,1008.29
2018-04-27T09:40:55.328Z,1008.28
2018-04-27T09:42:04.029Z,1008.32
2018-04-27T09:43:12.680Z,1008.33
2018-04-27T09:44:21.316Z,1008.3
2018-04-27T09:45:30.343Z,1008.3
2018-04-27T09:46:38.982Z,1008.24
2018-04-27T09:47:48.249Z,1008.22
2018-04-27T09:48:57.154Z,1008.19
2018-04-27T09:50:05.795Z,1008.18
2018-04-27T09:51:14.987Z,1008.16
2018-04-27T09:52:23.866Z,1008.18
2018-04-27T09:53:32.503Z,1008.11
2018-04-27T09:54:41.159Z,1008.07
2018-04-27T09:55:49.856Z,1008.04
2018-04-27T09:56:58.489Z,1008.02
2018-04-27T09:58:07.145Z,1008.03
2018-04-27T09:59:15.795Z,1008.01
2018-04-27T10:00:24.693Z,1007.97
2018-04-27T10:01:33.340Z,1007.99
2018-04-27T10:02:41.977Z,1007.98
2018-04-27T10:03:50.657Z,1007.93
2018-04-27T10:04:59.324Z,1007.93
2018-04-27T10:06:08.016Z,1007.89
2018-04-27T10:07:16.931Z,1007.86
2018-04-27T10:08:25.584Z,1007.82
2018-04-27T10:09:34.219Z,1007.83
2018-04-27T10:10:42.864Z,1007.77
2018-04-27T10:11:51.530Z,1007.8
2018-04-27T10:13:00.425Z,1007.78
2018-04-27T10:14:09.072Z,1007.75
2018-04-27T10:15:17.713Z,1007.77
2018-04-27T10:16:26.373Z,1007.79
2018-04-27T10:17:35.285Z,1007.79
2018-04-27T10:18:44.179Z,1007.8
2018-04-27T10:19:52.830Z,1007.74
2018-04-27T10:21:01.768Z,1007.8
2018-04-27T10:22:10.404Z,1007.78
2018-04-27T10:23:19.052Z,1007.81
2018-04-27T10:24:27.710Z,1007.77
2018-04-27T10:25:36.348Z,1007.77
2018-04-27T10:26:44.988Z,1007.77
2018-04-27T10:27:53.645Z,1007.79
2018-04-27T10:29:02.292Z,1007.78
2018-04-27T10:30:10.945Z,1007.81
2018-04-27T10:31:19.580Z,1007.85
2018-04-27T10:32:28.222Z,1007.82
2018-04-27T10:33:36.884Z,1007.8
2018-04-27T10:34:45.519Z,1007.76
2018-04-27T10:35:54.163Z,1007.81
2018-04-27T10:37:02.826Z,1007.8
2018-04-27T10:38:11.748Z,1007.77
2018-04-27T10:39:20.385Z,1007.74
2018-04-27T10:40:29.044Z,1007.64
2018-04-27T10:41:37.957Z,1007.56
2018-04-27T10:42:46.593Z,1007.5
2018-04-27T10:43:55.250Z,1007.46
2018-04-27T10:45:03.890Z,1007.47
2018-04-27T10:46:12.550Z,1007.45
2018-04-27T10:47:21.190Z,1007.47
2018-04-27T10:48:29.830Z,1007.45
2018-04-27T10:49:38.488Z,1007.48
2018-04-27T10:50:47.430Z,1007.5
2018-04-27T10:51:56.332Z,1007.47
2018-04-27T10:53:04.988Z,1007.47
2018-04-27T10:54:13.639Z,1007.4
2018-04-27T10:55:22.278Z,1007.4
2018-04-27T10:56:30.924Z,1007.38
2018-04-27T10:57:39.590Z,1007.38
2018-04-27T10:58:48.226Z,1007.37
2018-04-27T10:59:56.872Z,1007.37
2018-04-27T11:01:05.802Z,1007.39
2018-04-27T11:02:14.445Z,1007.33
2018-04-27T11:03:23.093Z,1007.28
2018-04-27T11:04:31.741Z,1007.27
2018-04-27T11:05:40.391Z,1007.16
2018-04-27T11:06:49.027Z,1007.18
2018-04-27T11:07:57.682Z,1007.15
2018-04-27T11:09:06.334Z,1007.16
2018-04-27T11:10:14.973Z,1007.13
2018-04-27T11:11:23.625Z,1007.06
2018-04-27T11:12:32.275Z,1007.06
2018-04-27T11:13:41.194Z,1007.03
2018-04-27T11:14:49.830Z,1006.97
2018-04-27T11:15:58.464Z,1006.99
2018-04-27T11:17:07.227Z,1006.97
2018-04-27T11:18:15.775Z,1006.98
2018-04-27T11:19:24.412Z,1006.98
2018-04-27T11:20:33.064Z,1006.95
2018-04-27T11:21:41.721Z,1006.96
2018-04-27T11:22:50.359Z,1006.93
2018-04-27T11:23:59.009Z,1006.9
2018-04-27T11:25:07.664Z,1006.88
2018-04-27T11:26:16.303Z,1006.89
2018-04-27T11:27:24.947Z,1006.87
2018-04-27T11:28:33.597Z,1006.84
2018-04-27T11:29:42.511Z,1006.86
2018-04-27T11:30:51.168Z,1006.81
2018-04-27T11:31:59.803Z,1006.81
2018-04-27T11:33:08.461Z,1006.77
2018-04-27T11:34:17.384Z,1006.73
2018-04-27T11:35:26.019Z,1006.7
2018-04-27T11:36:34.927Z,1006.65
2018-04-27T11:37:43.587Z,1006.62
2018-04-27T11:38:52.229Z,1006.59
2018-04-27T11:40:00.871Z,1006.6
2018-04-27T11:41:09.809Z,1006.61
2018-04-27T11:42:18.438Z,1006.7
2018-04-27T11:43:27.093Z,1006.73
2018-04-27T11:44:35.997Z,1006.72
2018-04-27T11:45:44.639Z,1006.71
2018-04-27T11:46:53.297Z,1006.72
2018-04-27T11:48:01.942Z,1006.71
2018-04-27T11:49:10.585Z,1006.68
2018-04-27T11:50:19.244Z,1006.69
2018-04-27T11:51:28.163Z,1006.61
2018-04-27T11:52:37.066Z,1006.63
2018-04-27T11:53:45.724Z,1006.57
2018-04-27T11:54:54.379Z,1006.51
2018-04-27T11:56:03.280Z,1006.47
2018-04-27T11:57:11.930Z,1006.49
2018-04-27T11:58:20.573Z,1006.49
2018-04-27T11:59:29.233Z,1006.48
2018-04-27T12:00:37.877Z,1006.41
2018-04-27T12:01:46.825Z,1006.41
2018-04-27T12:02:55.477Z,1006.35
2018-04-27T12:04:04.132Z,1006.35
2018-04-27T12:05:12.765Z,1006.34
2018-04-27T12:06:21.428Z,1006.34
2018-04-27T12:07:30.079Z,1006.36
2018-04-27T12:08:38.718Z,1006.37
2018-04-27T12:09:47.364Z,1006.37
2018-04-27T12:10:56.023Z,1006.34
2018-04-27T12:12:04.664Z,1006.29
2018-04-27T12:13:13.320Z,1006.27
2018-04-27T12:14:21.955Z,1006.25
2018-04-27T12:15:30.876Z,1006.17
2018-04-27T12:16:39.834Z,1006.16
2018-04-27T12:17:48.472Z,1006.09
2018-04-27T12:18:57.125Z,1006.09
2018-04-27T12:20:06.046Z,1006.08
2018-04-27T12:21:14.679Z,1006.1
2018-04-27T12:22:23.322Z,1006.02
2018-04-27T12:23:31.983Z,1006.02
2018-04-27T12:24:40.620Z,1005.97
2018-04-27T12:25:49.532Z,1005.94
2018-04-27T12:26:58.180Z,1005.87
2018-04-27T12:28:06.832Z,1005.82
2018-04-27T12:29:15.491Z,1005.82
2018-04-27T12:30:24.128Z,1005.81
2018-04-27T12:31:33.148Z,1005.74
2018-04-27T12:32:41.694Z,1005.73
2018-04-27T12:33:50.343Z,1005.72
2018-04-27T12:34:58.983Z,1005.71
2018-04-27T12:36:07.641Z,1005.69
2018-04-27T12:37:16.291Z,1005.73
2018-04-27T12:38:24.932Z,1005.69
2018-04-27T12:39:33.585Z,1005.69
2018-04-27T12:40:42.507Z,1005.67
2018-04-27T12:41:51.155Z,1005.6
2018-04-27T12:42:59.801Z,1005.58
2018-04-27T12:44:08.440Z,1005.52
2018-04-27T12:45:17.102Z,1005.42
2018-04-27T12:46:25.746Z,1005.43
2018-04-27T12:47:34.383Z,1005.41
2018-04-27T12:48:43.041Z,1005.38
2018-04-27T12:49:51.694Z,1005.36
2018-04-27T12:51:00.330Z,1005.36
2018-04-27T12:52:09.005Z,1005.34
2018-04-27T12:53:17.936Z,1005.38
2018-04-27T12:54:26.838Z,1005.39
2018-04-27T12:55:35.757Z,1005.34
2018-04-27T12:56:44.952Z,1005.29
2018-04-27T12:57:53.599Z,1005.24
2018-04-27T12:59:02.589Z,1005.18
2018-04-27T13:00:11.276Z,1005.19
2018-04-27T13:01:19.919Z,1005.2
2018-04-27T13:02:28.557Z,1005.23
2018-04-27T13:03:37.220Z,1005.23
2018-04-27T13:04:45.866Z,1005.26
2018-04-27T13:05:54.503Z,1005.24
2018-04-27T13:07:03.172Z,1005.23
2018-04-27T13:08:11.825Z,1005.21
2018-04-27T13:09:20.462Z,1005.21
2018-04-27T13:10:29.119Z,1005.18
2018-04-27T13:11:37.762Z,1005.19
2018-04-27T13:12:46.422Z,1005.17
2018-04-27T13:13:55.071Z,1005.19
2018-04-27T13:15:03.999Z,1005.17
2018-04-27T13:16:12.661Z,1005.17
2018-04-27T13:17:21.574Z,1005.1
2018-04-27T13:18:30.217Z,1005.04
2018-04-27T13:19:38.871Z,1004.99
2018-04-27T13:20:47.531Z,1004.99
2018-04-27T13:21:56.167Z,1005.03
2018-04-27T13:23:04.820Z,1004.98
2018-04-27T13:24:13.480Z,1005
2018-04-27T13:25:22.122Z,1004.98
2018-04-27T13:26:30.858Z,1004.97
2018-04-27T13:27:40.146Z,1004.94
2018-04-27T13:28:48.803Z,1004.9
2018-04-27T13:29:57.458Z,1004.97
2018-04-27T13:31:06.095Z,1004.96
2018-04-27T13:32:14.743Z,1005.01
2018-04-27T13:33:23.406Z,1004.98
2018-04-27T13:34:32.109Z,1004.95
2018-04-27T13:35:40.692Z,1004.93
2018-04-27T13:36:49.347Z,1004.88
2018-04-27T13:37:57.991Z,1004.83
2018-04-27T13:39:06.631Z,1004.79
2018-04-27T13:40:15.282Z,1004.79
2018-04-27T13:41:24.199Z,1004.76
2018-04-27T13:42:32.865Z,1004.77
2018-04-27T13:43:41.766Z,1004.72
2018-04-27T13:44:50.416Z,1004.7
2018-04-27T13:45:59.073Z,1004.72
2018-04-27T13:47:07.718Z,1004.65
2018-04-27T13:48:16.399Z,1004.69
2018-04-27T13:49:25.556Z,1004.68
2018-04-27T13:50:34.204Z,1004.73
2018-04-27T13:51:42.842Z,1004.72
2018-04-27T13:52:51.505Z,1004.67